sensor_id;sensor_type;location;lat;lon;timestamp;P1;durP1;ratioP1;P2;durP2;ratioP2
2191;SDS011;1102;49.718;11.902;2022-10-16T00:00:57;8.17;;;2.53;;
2191;SDS011;1102;49.718;11.902;2022-10-16T00:03:24;6.30;;;2.30;;
2191;SDS011;1102;49.718;11.902;2022-10-16T00:05:58;3.77;;;2.30;;
2191;SDS011;1102;49.718;11.902;2022-10-16T00:08:26;2.70;;;1.77;;
2191;SDS011;1102;49.718;11.902;2022-10-16T00:10:58;2.43;;;2.03;;
2191;SDS011;1102;49.718;11.902;2022-10-16T00:13:30;6.67;;;1.93;;
2191;SDS011;1102;49.718;11.902;2022-10-16T00:15:58;3.03;;;1.60;;
2191;SDS011;1102;49.718;11.902;2022-10-16T00:18:26;3.73;;;2.10;;
2191;SDS011;1102;49.718;11.902;2022-10-16T00:20:54;1.50;;;1.40;;
2191;SDS011;1102;49.718;11.902;2022-10-16T00:23:26;2.70;;;2.20;;
2191;SDS011;1102;49.718;11.902;2022-10-16T00:26:00;2.20;;;1.83;;
2191;SDS011;1102;49.718;11.902;2022-10-16T00:28:29;2.20;;;1.30;;
2191;SDS011;1102;49.718;11.902;2022-10-16T00:30:56;3.37;;;1.57;;
2191;SDS011;1102;49.718;11.902;2022-10-16T00:33:23;1.73;;;1.63;;
2191;SDS011;1102;49.718;11.902;2022-10-16T00:35:50;1.77;;;1.67;;
2191;SDS011;1102;49.718;11.902;2022-10-16T00:38:17;4.13;;;1.80;;
2191;SDS011;1102;49.718;11.902;2022-10-16T00:40:44;2.30;;;2.10;;
2191;SDS011;1102;49.718;11.902;2022-10-16T00:43:31;1.87;;;1.73;;
2191;SDS011;1102;49.718;11.902;2022-10-16T00:46:24;4.37;;;1.80;;
2191;SDS011;1102;49.718;11.902;2022-10-16T00:48:56;4.13;;;2.10;;
2191;SDS011;1102;49.718;11.902;2022-10-16T00:51:30;1.70;;;1.60;;
2191;SDS011;1102;49.718;11.902;2022-10-16T00:54:09;2.60;;;1.77;;
2191;SDS011;1102;49.718;11.902;2022-10-16T00:56:39;3.23;;;2.03;;
2191;SDS011;1102;49.718;11.902;2022-10-16T00:59:10;2.03;;;1.83;;
2191;SDS011;1102;49.718;11.902;2022-10-16T01:01:42;1.90;;;1.73;;
2191;SDS011;1102;49.718;11.902;2022-10-16T01:04:09;1.63;;;1.53;;
2191;SDS011;1102;49.718;11.902;2022-10-16T01:06:38;2.87;;;2.17;;
2191;SDS011;1102;49.718;11.902;2022-10-16T01:14:47;2.27;;;1.77;;
2191;SDS011;1102;49.718;11.902;2022-10-16T01:19:54;1.73;;;1.63;;
2191;SDS011;1102;49.718;11.902;2022-10-16T01:28:34;2.47;;;2.27;;
2191;SDS011;1102;49.718;11.902;2022-10-16T01:31:06;2.30;;;2.10;;
2191;SDS011;1102;49.718;11.902;2022-10-16T01:33:40;3.37;;;2.93;;
2191;SDS011;1102;49.718;11.902;2022-10-16T01:36:11;2.13;;;1.93;;
2191;SDS011;1102;49.718;11.902;2022-10-16T01:38:44;2.53;;;2.33;;
2191;SDS011;1102;49.718;11.902;2022-10-16T01:41:17;3.23;;;2.63;;
2191;SDS011;1102;49.718;11.902;2022-10-16T01:43:57;3.57;;;2.50;;
2191;SDS011;1102;49.718;11.902;2022-10-16T01:46:30;2.13;;;1.93;;
2191;SDS011;1102;49.718;11.902;2022-10-16T01:48:59;2.30;;;2.10;;
2191;SDS011;1102;49.718;11.902;2022-10-16T01:51:28;2.80;;;2.07;;
2191;SDS011;1102;49.718;11.902;2022-10-16T01:53:56;4.03;;;2.20;;
2191;SDS011;1102;49.718;11.902;2022-10-16T01:56:26;2.70;;;2.20;;
2191;SDS011;1102;49.718;11.902;2022-10-16T01:58:59;2.30;;;2.10;;
2191;SDS011;1102;49.718;11.902;2022-10-16T02:01:30;2.60;;;2.47;;
2191;SDS011;1102;49.718;11.902;2022-10-16T02:06:50;4.83;;;3.00;;
2191;SDS011;1102;49.718;11.902;2022-10-16T02:09:19;6.80;;;2.83;;
2191;SDS011;1102;49.718;11.902;2022-10-16T02:11:45;2.47;;;2.00;;
2191;SDS011;1102;49.718;11.902;2022-10-16T02:14:13;2.83;;;2.53;;
2191;SDS011;1102;49.718;11.902;2022-10-16T02:16:40;2.10;;;1.93;;
2191;SDS011;1102;49.718;11.902;2022-10-16T02:19:10;3.17;;;2.30;;
2191;SDS011;1102;49.718;11.902;2022-10-16T02:21:47;2.97;;;2.10;;
2191;SDS011;1102;49.718;11.902;2022-10-16T02:27:05;7.60;;;2.37;;
2191;SDS011;1102;49.718;11.902;2022-10-16T02:29:38;3.40;;;2.93;;
2191;SDS011;1102;49.718;11.902;2022-10-16T02:32:11;2.60;;;2.27;;
2191;SDS011;1102;49.718;11.902;2022-10-16T02:34:41;3.70;;;1.97;;
2191;SDS011;1102;49.718;11.902;2022-10-16T02:37:08;3.17;;;2.10;;
2191;SDS011;1102;49.718;11.902;2022-10-16T02:39:36;2.33;;;2.13;;
2191;SDS011;1102;49.718;11.902;2022-10-16T02:42:04;2.40;;;2.03;;
2191;SDS011;1102;49.718;11.902;2022-10-16T02:44:31;3.70;;;2.10;;
2191;SDS011;1102;49.718;11.902;2022-10-16T02:46:57;2.33;;;2.13;;
2191;SDS011;1102;49.718;11.902;2022-10-16T02:49:24;2.80;;;2.17;;
2191;SDS011;1102;49.718;11.902;2022-10-16T02:51:50;2.23;;;2.03;;
2191;SDS011;1102;49.718;11.902;2022-10-16T02:54:17;2.57;;;2.37;;
2191;SDS011;1102;49.718;11.902;2022-10-16T02:56:44;7.27;;;2.70;;
2191;SDS011;1102;49.718;11.902;2022-10-16T02:59:10;2.67;;;1.90;;
2191;SDS011;1102;49.718;11.902;2022-10-16T03:01:37;2.10;;;1.90;;
2191;SDS011;1102;49.718;11.902;2022-10-16T03:04:04;3.07;;;2.77;;
2191;SDS011;1102;49.718;11.902;2022-10-16T03:06:30;4.93;;;2.60;;
2191;SDS011;1102;49.718;11.902;2022-10-16T03:08:57;2.50;;;2.20;;
2191;SDS011;1102;49.718;11.902;2022-10-16T03:11:24;2.50;;;1.90;;
2191;SDS011;1102;49.718;11.902;2022-10-16T03:13:50;9.73;;;2.90;;
2191;SDS011;1102;49.718;11.902;2022-10-16T03:16:17;3.03;;;2.60;;
2191;SDS011;1102;49.718;11.902;2022-10-16T03:18:47;3.23;;;2.60;;
2191;SDS011;1102;49.718;11.902;2022-10-16T03:21:15;2.40;;;2.20;;
2191;SDS011;1102;49.718;11.902;2022-10-16T03:23:42;2.60;;;2.40;;
2191;SDS011;1102;49.718;11.902;2022-10-16T03:26:09;6.20;;;2.00;;
2191;SDS011;1102;49.718;11.902;2022-10-16T03:28:36;1.97;;;1.87;;
2191;SDS011;1102;49.718;11.902;2022-10-16T03:31:02;2.10;;;1.90;;
2191;SDS011;1102;49.718;11.902;2022-10-16T03:33:29;2.77;;;2.57;;
2191;SDS011;1102;49.718;11.902;2022-10-16T03:35:56;2.20;;;1.83;;
2191;SDS011;1102;49.718;11.902;2022-10-16T03:38:22;7.20;;;2.30;;
2191;SDS011;1102;49.718;11.902;2022-10-16T03:40:49;2.13;;;2.03;;
2191;SDS011;1102;49.718;11.902;2022-10-16T03:43:15;2.40;;;2.20;;
2191;SDS011;1102;49.718;11.902;2022-10-16T03:45:42;4.50;;;2.57;;
2191;SDS011;1102;49.718;11.902;2022-10-16T03:48:09;4.83;;;1.90;;
2191;SDS011;1102;49.718;11.902;2022-10-16T03:50:35;2.10;;;1.90;;
2191;SDS011;1102;49.718;11.902;2022-10-16T03:53:02;2.20;;;2.00;;
2191;SDS011;1102;49.718;11.902;2022-10-16T03:55:29;2.80;;;2.57;;
2191;SDS011;1102;49.718;11.902;2022-10-16T03:57:56;4.50;;;2.20;;
2191;SDS011;1102;49.718;11.902;2022-10-16T04:00:23;4.00;;;2.20;;
2191;SDS011;1102;49.718;11.902;2022-10-16T04:02:49;2.73;;;2.40;;
2191;SDS011;1102;49.718;11.902;2022-10-16T04:05:16;4.40;;;2.27;;
2191;SDS011;1102;49.718;11.902;2022-10-16T04:07:42;3.37;;;2.23;;
2191;SDS011;1102;49.718;11.902;2022-10-16T04:10:09;2.57;;;2.37;;
2191;SDS011;1102;49.718;11.902;2022-10-16T04:12:36;3.13;;;2.37;;
2191;SDS011;1102;49.718;11.902;2022-10-16T04:15:03;3.13;;;2.40;;
2191;SDS011;1102;49.718;11.902;2022-10-16T04:17:29;2.73;;;2.47;;
2191;SDS011;1102;49.718;11.902;2022-10-16T04:19:56;3.00;;;2.30;;
2191;SDS011;1102;49.718;11.902;2022-10-16T04:22:22;2.03;;;1.90;;
2191;SDS011;1102;49.718;11.902;2022-10-16T04:24:49;4.70;;;2.20;;
2191;SDS011;1102;49.718;11.902;2022-10-16T04:27:16;4.23;;;2.00;;
2191;SDS011;1102;49.718;11.902;2022-10-16T04:29:42;2.03;;;1.93;;
2191;SDS011;1102;49.718;11.902;2022-10-16T04:32:09;6.10;;;2.03;;
2191;SDS011;1102;49.718;11.902;2022-10-16T04:34:36;2.40;;;2.20;;
2191;SDS011;1102;49.718;11.902;2022-10-16T04:37:04;2.30;;;2.10;;
2191;SDS011;1102;49.718;11.902;2022-10-16T04:39:30;2.40;;;1.70;;
2191;SDS011;1102;49.718;11.902;2022-10-16T04:41:57;2.40;;;2.10;;
2191;SDS011;1102;49.718;11.902;2022-10-16T04:44:24;2.40;;;2.20;;
2191;SDS011;1102;49.718;11.902;2022-10-16T04:46:50;2.40;;;2.20;;
2191;SDS011;1102;49.718;11.902;2022-10-16T04:49:17;6.07;;;2.50;;
2191;SDS011;1102;49.718;11.902;2022-10-16T04:51:44;2.60;;;2.40;;
2191;SDS011;1102;49.718;11.902;2022-10-16T04:54:10;2.47;;;2.00;;
2191;SDS011;1102;49.718;11.902;2022-10-16T04:56:37;3.10;;;2.20;;
2191;SDS011;1102;49.718;11.902;2022-10-16T04:59:12;3.90;;;2.10;;
2191;SDS011;1102;49.718;11.902;2022-10-16T05:01:43;2.90;;;2.03;;
2191;SDS011;1102;49.718;11.902;2022-10-16T05:04:10;3.80;;;2.83;;
2191;SDS011;1102;49.718;11.902;2022-10-16T05:06:37;3.47;;;2.27;;
2191;SDS011;1102;49.718;11.902;2022-10-16T05:09:05;4.97;;;1.83;;
2191;SDS011;1102;49.718;11.902;2022-10-16T05:11:32;2.50;;;1.90;;
2191;SDS011;1102;49.718;11.902;2022-10-16T05:13:59;21.10;;;15.33;;
2191;SDS011;1102;49.718;11.902;2022-10-16T05:16:26;8.60;;;4.23;;
2191;SDS011;1102;49.718;11.902;2022-10-16T05:18:53;2.57;;;2.23;;
2191;SDS011;1102;49.718;11.902;2022-10-16T05:21:29;3.70;;;3.40;;
2191;SDS011;1102;49.718;11.902;2022-10-16T05:23:56;3.20;;;3.00;;
2191;SDS011;1102;49.718;11.902;2022-10-16T05:26:23;2.33;;;2.10;;
2191;SDS011;1102;49.718;11.902;2022-10-16T05:28:49;2.33;;;2.13;;
2191;SDS011;1102;49.718;11.902;2022-10-16T05:31:16;3.00;;;2.10;;
2191;SDS011;1102;49.718;11.902;2022-10-16T05:33:43;2.90;;;1.83;;
2191;SDS011;1102;49.718;11.902;2022-10-16T05:36:10;2.80;;;2.60;;
2191;SDS011;1102;49.718;11.902;2022-10-16T05:38:37;4.13;;;2.60;;
2191;SDS011;1102;49.718;11.902;2022-10-16T05:41:04;4.53;;;2.47;;
2191;SDS011;1102;49.718;11.902;2022-10-16T05:43:31;2.50;;;1.87;;
2191;SDS011;1102;49.718;11.902;2022-10-16T05:45:59;3.47;;;1.90;;
2191;SDS011;1102;49.718;11.902;2022-10-16T05:48:31;2.90;;;2.20;;
2191;SDS011;1102;49.718;11.902;2022-10-16T05:51:07;2.57;;;1.97;;
2191;SDS011;1102;49.718;11.902;2022-10-16T05:53:37;2.03;;;1.83;;
2191;SDS011;1102;49.718;11.902;2022-10-16T05:56:05;5.27;;;2.50;;
2191;SDS011;1102;49.718;11.902;2022-10-16T05:58:34;7.50;;;2.60;;
2191;SDS011;1102;49.718;11.902;2022-10-16T06:01:03;2.40;;;2.17;;
2191;SDS011;1102;49.718;11.902;2022-10-16T06:03:32;2.90;;;2.70;;
2191;SDS011;1102;49.718;11.902;2022-10-16T06:05:59;6.10;;;2.90;;
2191;SDS011;1102;49.718;11.902;2022-10-16T06:08:37;2.50;;;2.30;;
2191;SDS011;1102;49.718;11.902;2022-10-16T06:11:06;2.60;;;2.40;;
2191;SDS011;1102;49.718;11.902;2022-10-16T06:13:34;2.80;;;2.20;;
2191;SDS011;1102;49.718;11.902;2022-10-16T06:16:01;2.70;;;2.50;;
2191;SDS011;1102;49.718;11.902;2022-10-16T06:18:29;2.40;;;2.20;;
2191;SDS011;1102;49.718;11.902;2022-10-16T06:20:56;3.40;;;3.10;;
2191;SDS011;1102;49.718;11.902;2022-10-16T06:23:23;3.03;;;2.83;;
2191;SDS011;1102;49.718;11.902;2022-10-16T06:25:50;2.80;;;2.20;;
2191;SDS011;1102;49.718;11.902;2022-10-16T06:28:18;2.67;;;2.47;;
2191;SDS011;1102;49.718;11.902;2022-10-16T06:30:44;3.40;;;2.63;;
2191;SDS011;1102;49.718;11.902;2022-10-16T06:33:12;3.60;;;3.40;;
2191;SDS011;1102;49.718;11.902;2022-10-16T06:35:38;2.87;;;2.67;;
2191;SDS011;1102;49.718;11.902;2022-10-16T06:38:05;3.77;;;2.83;;
2191;SDS011;1102;49.718;11.902;2022-10-16T06:40:32;2.90;;;2.60;;
2191;SDS011;1102;49.718;11.902;2022-10-16T06:42:59;5.43;;;5.03;;
2191;SDS011;1102;49.718;11.902;2022-10-16T06:45:25;4.77;;;3.93;;
2191;SDS011;1102;49.718;11.902;2022-10-16T06:47:52;3.67;;;3.37;;
2191;SDS011;1102;49.718;11.902;2022-10-16T06:50:18;2.87;;;2.47;;
2191;SDS011;1102;49.718;11.902;2022-10-16T06:52:45;3.17;;;2.90;;
2191;SDS011;1102;49.718;11.902;2022-10-16T06:55:12;6.60;;;3.30;;
2191;SDS011;1102;49.718;11.902;2022-10-16T06:57:39;3.93;;;3.53;;
2191;SDS011;1102;49.718;11.902;2022-10-16T07:00:05;5.47;;;3.50;;
2191;SDS011;1102;49.718;11.902;2022-10-16T07:02:32;3.30;;;3.10;;
2191;SDS011;1102;49.718;11.902;2022-10-16T07:04:59;2.50;;;2.30;;
2191;SDS011;1102;49.718;11.902;2022-10-16T07:07:26;2.87;;;2.67;;
2191;SDS011;1102;49.718;11.902;2022-10-16T07:09:52;5.53;;;3.93;;
2191;SDS011;1102;49.718;11.902;2022-10-16T07:12:19;3.40;;;2.83;;
2191;SDS011;1102;49.718;11.902;2022-10-16T07:14:46;3.30;;;3.00;;
2191;SDS011;1102;49.718;11.902;2022-10-16T07:17:12;5.20;;;3.80;;
2191;SDS011;1102;49.718;11.902;2022-10-16T07:19:39;2.90;;;2.70;;
2191;SDS011;1102;49.718;11.902;2022-10-16T07:22:06;2.77;;;2.53;;
2191;SDS011;1102;49.718;11.902;2022-10-16T07:24:32;12.43;;;7.30;;
2191;SDS011;1102;49.718;11.902;2022-10-16T07:26:59;4.10;;;3.70;;
2191;SDS011;1102;49.718;11.902;2022-10-16T07:29:26;4.30;;;4.00;;
2191;SDS011;1102;49.718;11.902;2022-10-16T07:31:52;3.80;;;3.50;;
2191;SDS011;1102;49.718;11.902;2022-10-16T07:34:20;3.60;;;3.30;;
2191;SDS011;1102;49.718;11.902;2022-10-16T07:36:49;4.77;;;3.10;;
2191;SDS011;1102;49.718;11.902;2022-10-16T07:39:16;3.87;;;3.57;;
2191;SDS011;1102;49.718;11.902;2022-10-16T07:41:43;3.10;;;2.90;;
2191;SDS011;1102;49.718;11.902;2022-10-16T07:44:10;3.53;;;3.20;;
2191;SDS011;1102;49.718;11.902;2022-10-16T07:46:37;6.30;;;3.70;;
2191;SDS011;1102;49.718;11.902;2022-10-16T07:49:04;6.10;;;3.63;;
2191;SDS011;1102;49.718;11.902;2022-10-16T07:51:31;5.60;;;3.70;;
2191;SDS011;1102;49.718;11.902;2022-10-16T07:53:57;5.83;;;3.37;;
2191;SDS011;1102;49.718;11.902;2022-10-16T07:56:24;3.40;;;3.20;;
2191;SDS011;1102;49.718;11.902;2022-10-16T07:58:52;3.70;;;3.30;;
2191;SDS011;1102;49.718;11.902;2022-10-16T08:01:19;3.70;;;3.50;;
2191;SDS011;1102;49.718;11.902;2022-10-16T08:03:47;3.50;;;3.20;;
2191;SDS011;1102;49.718;11.902;2022-10-16T08:06:17;5.07;;;4.50;;
2191;SDS011;1102;49.718;11.902;2022-10-16T08:08:50;5.63;;;3.20;;
2191;SDS011;1102;49.718;11.902;2022-10-16T08:11:17;3.83;;;3.53;;
2191;SDS011;1102;49.718;11.902;2022-10-16T08:13:43;4.20;;;3.80;;
2191;SDS011;1102;49.718;11.902;2022-10-16T08:16:10;11.13;;;5.70;;
2191;SDS011;1102;49.718;11.902;2022-10-16T08:18:37;17.27;;;7.47;;
2191;SDS011;1102;49.718;11.902;2022-10-16T08:21:06;5.77;;;5.00;;
2191;SDS011;1102;49.718;11.902;2022-10-16T08:23:43;3.53;;;3.23;;
2191;SDS011;1102;49.718;11.902;2022-10-16T08:26:11;3.90;;;3.03;;
2191;SDS011;1102;49.718;11.902;2022-10-16T08:28:38;3.23;;;2.93;;
2191;SDS011;1102;49.718;11.902;2022-10-16T08:31:09;4.23;;;3.70;;
2191;SDS011;1102;49.718;11.902;2022-10-16T08:33:40;4.40;;;4.00;;
2191;SDS011;1102;49.718;11.902;2022-10-16T08:36:08;5.43;;;4.87;;
2191;SDS011;1102;49.718;11.902;2022-10-16T08:38:37;3.80;;;3.50;;
2191;SDS011;1102;49.718;11.902;2022-10-16T08:41:13;4.20;;;3.90;;
2191;SDS011;1102;49.718;11.902;2022-10-16T08:47:18;5.83;;;3.00;;
2191;SDS011;1102;49.718;11.902;2022-10-16T08:49:59;4.23;;;3.67;;
2191;SDS011;1102;49.718;11.902;2022-10-16T08:52:41;3.57;;;3.33;;
2191;SDS011;1102;49.718;11.902;2022-10-16T08:55:45;3.50;;;3.20;;
2191;SDS011;1102;49.718;11.902;2022-10-16T08:58:17;3.67;;;2.90;;
2191;SDS011;1102;49.718;11.902;2022-10-16T09:00:46;5.20;;;2.60;;
2191;SDS011;1102;49.718;11.902;2022-10-16T09:03:21;4.23;;;2.77;;
2191;SDS011;1102;49.718;11.902;2022-10-16T09:08:43;7.10;;;4.03;;
2191;SDS011;1102;49.718;11.902;2022-10-16T09:11:43;4.23;;;3.00;;
2191;SDS011;1102;49.718;11.902;2022-10-16T09:14:31;4.13;;;3.73;;
2191;SDS011;1102;49.718;11.902;2022-10-16T09:19:40;7.30;;;3.13;;
2191;SDS011;1102;49.718;11.902;2022-10-16T09:22:14;7.90;;;2.67;;
2191;SDS011;1102;49.718;11.902;2022-10-16T09:24:42;2.73;;;2.53;;
2191;SDS011;1102;49.718;11.902;2022-10-16T09:27:12;3.93;;;3.03;;
2191;SDS011;1102;49.718;11.902;2022-10-16T09:29:40;6.33;;;3.40;;
2191;SDS011;1102;49.718;11.902;2022-10-16T09:32:10;7.20;;;4.30;;
2191;SDS011;1102;49.718;11.902;2022-10-16T09:34:45;11.73;;;8.10;;
2191;SDS011;1102;49.718;11.902;2022-10-16T09:37:17;13.60;;;6.47;;
2191;SDS011;1102;49.718;11.902;2022-10-16T09:39:50;4.93;;;4.43;;
2191;SDS011;1102;49.718;11.902;2022-10-16T09:42:20;4.77;;;4.27;;
2191;SDS011;1102;49.718;11.902;2022-10-16T09:44:50;8.83;;;4.70;;
2191;SDS011;1102;49.718;11.902;2022-10-16T09:47:21;12.57;;;8.30;;
2191;SDS011;1102;49.718;11.902;2022-10-16T09:49:54;9.73;;;6.60;;
2191;SDS011;1102;49.718;11.902;2022-10-16T09:52:24;3.33;;;2.33;;
2191;SDS011;1102;49.718;11.902;2022-10-16T09:54:51;3.10;;;2.17;;
2191;SDS011;1102;49.718;11.902;2022-10-16T09:57:23;2.80;;;2.33;;
2191;SDS011;1102;49.718;11.902;2022-10-16T09:59:52;2.77;;;2.00;;
2191;SDS011;1102;49.718;11.902;2022-10-16T10:02:23;1.93;;;1.67;;
2191;SDS011;1102;49.718;11.902;2022-10-16T10:04:56;6.13;;;2.17;;
2191;SDS011;1102;49.718;11.902;2022-10-16T10:07:24;2.20;;;1.97;;
2191;SDS011;1102;49.718;11.902;2022-10-16T10:09:55;5.50;;;4.27;;
2191;SDS011;1102;49.718;11.902;2022-10-16T10:12:24;3.40;;;3.10;;
2191;SDS011;1102;49.718;11.902;2022-10-16T10:14:58;3.30;;;2.60;;
2191;SDS011;1102;49.718;11.902;2022-10-16T10:17:31;2.53;;;2.27;;
2191;SDS011;1102;49.718;11.902;2022-10-16T10:19:59;5.80;;;3.23;;
2191;SDS011;1102;49.718;11.902;2022-10-16T10:30:15;1.90;;;1.70;;
2191;SDS011;1102;49.718;11.902;2022-10-16T10:33:41;3.13;;;1.60;;
2191;SDS011;1102;49.718;11.902;2022-10-16T10:38:31;2.27;;;1.83;;
2191;SDS011;1102;49.718;11.902;2022-10-16T10:41:39;7.67;;;1.80;;
2191;SDS011;1102;49.718;11.902;2022-10-16T10:52:41;5.73;;;2.50;;
2191;SDS011;1102;49.718;11.902;2022-10-16T11:08:37;3.47;;;1.80;;
2191;SDS011;1102;49.718;11.902;2022-10-16T11:11:25;1.50;;;1.40;;
2191;SDS011;1102;49.718;11.902;2022-10-16T11:14:18;2.33;;;1.60;;
2191;SDS011;1102;49.718;11.902;2022-10-16T11:16:58;2.10;;;1.90;;
2191;SDS011;1102;49.718;11.902;2022-10-16T11:19:37;2.70;;;1.80;;
2191;SDS011;1102;49.718;11.902;2022-10-16T11:22:48;2.47;;;1.80;;
2191;SDS011;1102;49.718;11.902;2022-10-16T11:31:00;1.60;;;1.50;;
2191;SDS011;1102;49.718;11.902;2022-10-16T11:33:38;2.27;;;1.77;;
2191;SDS011;1102;49.718;11.902;2022-10-16T11:46:43;2.83;;;1.60;;
2191;SDS011;1102;49.718;11.902;2022-10-16T11:49:34;1.70;;;1.60;;
2191;SDS011;1102;49.718;11.902;2022-10-16T11:54:59;2.47;;;2.27;;
2191;SDS011;1102;49.718;11.902;2022-10-16T11:57:38;5.50;;;2.13;;
2191;SDS011;1102;49.718;11.902;2022-10-16T12:05:18;2.30;;;2.10;;
2191;SDS011;1102;49.718;11.902;2022-10-16T12:08:34;3.53;;;2.80;;
2191;SDS011;1102;49.718;11.902;2022-10-16T12:10:54;2.63;;;2.43;;
2191;SDS011;1102;49.718;11.902;2022-10-16T12:13:35;2.40;;;2.20;;
2191;SDS011;1102;49.718;11.902;2022-10-16T12:18:39;4.10;;;2.40;;
2191;SDS011;1102;49.718;11.902;2022-10-16T12:21:08;5.17;;;2.73;;
2191;SDS011;1102;49.718;11.902;2022-10-16T12:23:37;2.17;;;2.07;;
2191;SDS011;1102;49.718;11.902;2022-10-16T12:26:13;3.63;;;2.67;;
2191;SDS011;1102;49.718;11.902;2022-10-16T12:28:49;2.63;;;2.13;;
2191;SDS011;1102;49.718;11.902;2022-10-16T12:31:18;3.73;;;2.80;;
2191;SDS011;1102;49.718;11.902;2022-10-16T12:36:47;2.73;;;2.17;;
2191;SDS011;1102;49.718;11.902;2022-10-16T12:39:22;3.53;;;2.20;;
2191;SDS011;1102;49.718;11.902;2022-10-16T12:42:01;2.70;;;2.50;;
2191;SDS011;1102;49.718;11.902;2022-10-16T12:44:32;4.90;;;2.80;;
2191;SDS011;1102;49.718;11.902;2022-10-16T12:47:02;2.90;;;2.70;;
2191;SDS011;1102;49.718;11.902;2022-10-16T12:49:30;3.37;;;2.10;;
2191;SDS011;1102;49.718;11.902;2022-10-16T12:52:01;11.77;;;2.53;;
2191;SDS011;1102;49.718;11.902;2022-10-16T13:05:46;2.37;;;2.20;;
2191;SDS011;1102;49.718;11.902;2022-10-16T13:25:15;2.00;;;1.90;;
2191;SDS011;1102;49.718;11.902;2022-10-16T13:28:06;2.80;;;1.60;;
2191;SDS011;1102;49.718;11.902;2022-10-16T13:33:37;3.13;;;1.70;;
2191;SDS011;1102;49.718;11.902;2022-10-16T13:36:17;1.80;;;1.33;;
2191;SDS011;1102;49.718;11.902;2022-10-16T13:38:46;1.90;;;1.80;;
2191;SDS011;1102;49.718;11.902;2022-10-16T13:41:14;1.87;;;1.77;;
2191;SDS011;1102;49.718;11.902;2022-10-16T13:48:43;3.63;;;1.70;;
2191;SDS011;1102;49.718;11.902;2022-10-16T13:53:43;1.90;;;1.80;;
2191;SDS011;1102;49.718;11.902;2022-10-16T13:56:12;4.40;;;2.03;;
2191;SDS011;1102;49.718;11.902;2022-10-16T13:58:41;3.33;;;2.00;;
2191;SDS011;1102;49.718;11.902;2022-10-16T14:01:18;2.30;;;2.10;;
2191;SDS011;1102;49.718;11.902;2022-10-16T14:04:00;1.97;;;1.70;;
2191;SDS011;1102;49.718;11.902;2022-10-16T14:06:32;1.77;;;1.67;;
2191;SDS011;1102;49.718;11.902;2022-10-16T14:09:12;2.70;;;1.80;;
2191;SDS011;1102;49.718;11.902;2022-10-16T14:11:50;2.60;;;1.53;;
2191;SDS011;1102;49.718;11.902;2022-10-16T14:14:20;2.60;;;1.80;;
2191;SDS011;1102;49.718;11.902;2022-10-16T14:16:47;2.30;;;1.57;;
2191;SDS011;1102;49.718;11.902;2022-10-16T14:19:20;2.20;;;1.60;;
2191;SDS011;1102;49.718;11.902;2022-10-16T14:21:49;2.23;;;1.53;;
2191;SDS011;1102;49.718;11.902;2022-10-16T14:24:25;1.60;;;1.50;;
2191;SDS011;1102;49.718;11.902;2022-10-16T14:26:54;2.30;;;2.07;;
2191;SDS011;1102;49.718;11.902;2022-10-16T14:29:23;1.87;;;1.77;;
2191;SDS011;1102;49.718;11.902;2022-10-16T14:32:01;3.53;;;1.90;;
2191;SDS011;1102;49.718;11.902;2022-10-16T14:34:34;1.60;;;1.13;;
2191;SDS011;1102;49.718;11.902;2022-10-16T14:37:13;2.30;;;1.60;;
2191;SDS011;1102;49.718;11.902;2022-10-16T14:39:53;3.90;;;1.70;;
2191;SDS011;1102;49.718;11.902;2022-10-16T14:42:22;1.53;;;1.40;;
2191;SDS011;1102;49.718;11.902;2022-10-16T14:44:52;4.80;;;1.80;;
2191;SDS011;1102;49.718;11.902;2022-10-16T14:47:21;2.30;;;1.43;;
2191;SDS011;1102;49.718;11.902;2022-10-16T14:49:53;4.07;;;1.60;;
2191;SDS011;1102;49.718;11.902;2022-10-16T14:52:22;3.07;;;1.60;;
2191;SDS011;1102;49.718;11.902;2022-10-16T14:54:49;3.20;;;2.10;;
2191;SDS011;1102;49.718;11.902;2022-10-16T14:57:17;1.70;;;1.60;;
2191;SDS011;1102;49.718;11.902;2022-10-16T14:59:47;4.30;;;1.37;;
2191;SDS011;1102;49.718;11.902;2022-10-16T15:04:51;2.33;;;1.60;;
2191;SDS011;1102;49.718;11.902;2022-10-16T15:07:18;1.47;;;1.37;;
2191;SDS011;1102;49.718;11.902;2022-10-16T15:09:45;3.37;;;1.50;;
2191;SDS011;1102;49.718;11.902;2022-10-16T15:12:15;1.50;;;1.40;;
2191;SDS011;1102;49.718;11.902;2022-10-16T15:14:42;2.80;;;2.03;;
2191;SDS011;1102;49.718;11.902;2022-10-16T15:17:10;4.03;;;1.90;;
2191;SDS011;1102;49.718;11.902;2022-10-16T15:19:37;2.20;;;2.10;;
2191;SDS011;1102;49.718;11.902;2022-10-16T15:22:04;3.23;;;1.73;;
2191;SDS011;1102;49.718;11.902;2022-10-16T15:24:31;2.60;;;1.77;;
2191;SDS011;1102;49.718;11.902;2022-10-16T15:26:58;3.40;;;1.50;;
2191;SDS011;1102;49.718;11.902;2022-10-16T15:29:25;2.00;;;1.80;;
2191;SDS011;1102;49.718;11.902;2022-10-16T15:31:52;4.40;;;2.30;;
2191;SDS011;1102;49.718;11.902;2022-10-16T15:34:19;2.33;;;2.20;;
2191;SDS011;1102;49.718;11.902;2022-10-16T15:36:46;29.90;;;24.60;;
2191;SDS011;1102;49.718;11.902;2022-10-16T15:39:17;48.23;;;34.03;;
2191;SDS011;1102;49.718;11.902;2022-10-16T15:41:46;49.23;;;41.60;;
2191;SDS011;1102;49.718;11.902;2022-10-16T15:44:17;25.13;;;22.07;;
2191;SDS011;1102;49.718;11.902;2022-10-16T15:46:44;18.30;;;16.53;;
2191;SDS011;1102;49.718;11.902;2022-10-16T15:49:11;9.63;;;7.73;;
2191;SDS011;1102;49.718;11.902;2022-10-16T15:51:39;14.40;;;13.03;;
2191;SDS011;1102;49.718;11.902;2022-10-16T15:54:07;10.83;;;9.27;;
2191;SDS011;1102;49.718;11.902;2022-10-16T15:56:37;8.87;;;6.80;;
2191;SDS011;1102;49.718;11.902;2022-10-16T15:59:04;6.27;;;4.27;;
2191;SDS011;1102;49.718;11.902;2022-10-16T16:01:32;3.57;;;2.60;;
2191;SDS011;1102;49.718;11.902;2022-10-16T16:04:00;5.93;;;2.30;;
2191;SDS011;1102;49.718;11.902;2022-10-16T16:06:40;4.20;;;2.77;;
2191;SDS011;1102;49.718;11.902;2022-10-16T16:09:11;8.73;;;2.70;;
2191;SDS011;1102;49.718;11.902;2022-10-16T16:11:38;4.90;;;2.50;;
2191;SDS011;1102;49.718;11.902;2022-10-16T16:14:06;8.73;;;6.20;;
2191;SDS011;1102;49.718;11.902;2022-10-16T16:16:33;27.93;;;7.37;;
2191;SDS011;1102;49.718;11.902;2022-10-16T16:19:06;7.07;;;3.77;;
2191;SDS011;1102;49.718;11.902;2022-10-16T16:21:37;4.60;;;3.83;;
2191;SDS011;1102;49.718;11.902;2022-10-16T16:24:04;4.33;;;2.47;;
2191;SDS011;1102;49.718;11.902;2022-10-16T16:26:34;5.10;;;2.40;;
2191;SDS011;1102;49.718;11.902;2022-10-16T16:29:03;3.33;;;2.93;;
2191;SDS011;1102;49.718;11.902;2022-10-16T16:31:31;10.40;;;2.70;;
2191;SDS011;1102;49.718;11.902;2022-10-16T16:33:58;10.37;;;2.87;;
2191;SDS011;1102;49.718;11.902;2022-10-16T16:36:25;4.03;;;2.30;;
2191;SDS011;1102;49.718;11.902;2022-10-16T16:38:52;2.40;;;2.20;;
2191;SDS011;1102;49.718;11.902;2022-10-16T16:41:22;7.53;;;2.63;;
2191;SDS011;1102;49.718;11.902;2022-10-16T16:43:52;3.60;;;3.10;;
2191;SDS011;1102;49.718;11.902;2022-10-16T16:46:20;8.03;;;4.23;;
2191;SDS011;1102;49.718;11.902;2022-10-16T16:48:47;12.63;;;5.83;;
2191;SDS011;1102;49.718;11.902;2022-10-16T16:51:16;9.20;;;5.67;;
2191;SDS011;1102;49.718;11.902;2022-10-16T16:53:47;25.30;;;18.97;;
2191;SDS011;1102;49.718;11.902;2022-10-16T16:56:16;22.63;;;19.20;;
2191;SDS011;1102;49.718;11.902;2022-10-16T16:58:47;18.87;;;11.57;;
2191;SDS011;1102;49.718;11.902;2022-10-16T17:01:16;16.87;;;14.80;;
2191;SDS011;1102;49.718;11.902;2022-10-16T17:03:47;14.90;;;11.07;;
2191;SDS011;1102;49.718;11.902;2022-10-16T17:06:16;15.13;;;13.40;;
2191;SDS011;1102;49.718;11.902;2022-10-16T17:08:46;15.70;;;11.70;;
2191;SDS011;1102;49.718;11.902;2022-10-16T17:11:15;15.27;;;9.20;;
2191;SDS011;1102;49.718;11.902;2022-10-16T17:13:44;15.97;;;11.80;;
2191;SDS011;1102;49.718;11.902;2022-10-16T17:16:11;15.43;;;13.87;;
2191;SDS011;1102;49.718;11.902;2022-10-16T17:18:38;14.50;;;12.17;;
2191;SDS011;1102;49.718;11.902;2022-10-16T17:21:06;14.83;;;11.07;;
2191;SDS011;1102;49.718;11.902;2022-10-16T17:23:34;12.67;;;9.30;;
2191;SDS011;1102;49.718;11.902;2022-10-16T17:26:03;11.30;;;9.80;;
2191;SDS011;1102;49.718;11.902;2022-10-16T17:28:34;15.10;;;12.53;;
2191;SDS011;1102;49.718;11.902;2022-10-16T17:33:45;15.07;;;11.10;;